Oakfield, Wisconsin
Current Conditions -  °F | °C
As of 7:53 AM on Wednesday 26 Nov 2014 (Local Time) from KFLD Reporting Station
Haze Haze  
Wind Chill: 13°   Ceiling: 700
Heat Index: 13°   Visibility: 6mi
Dew Point:   Wind: 0mph
Humidity: 84%   Direction: NA
Pressure: 30.15"   Gusts: NA
Location:  43.69°N, 88.55°W
Report Text: KFLD 261353Z AUTO 00000KT 6SM BR OVC007 M11/M13 A3015 RMK AO2 SLP226 T11061128
Loading
Personal Weather Stations






























Interactive Weather Map New forecast layout! Learn more

10-Day Weather Forecast

Advertisements
Track Severe Weather on mobile